sensor_id;sensor_type;location;lat;lon;timestamp;P1;durP1;ratioP1;P2;durP2;ratioP2
32876;SDS011;19226;51.600;8.034;2023-05-07T00:02:30;7.30;;;4.03;;
32876;SDS011;19226;51.600;8.034;2023-05-07T00:05:16;6.82;;;3.92;;
32876;SDS011;19226;51.600;8.034;2023-05-07T00:08:01;4.53;;;4.10;;
32876;SDS011;19226;51.600;8.034;2023-05-07T00:10:45;7.10;;;4.20;;
32876;SDS011;19226;51.600;8.034;2023-05-07T00:13:30;6.07;;;4.50;;
32876;SDS011;19226;51.600;8.034;2023-05-07T00:16:19;4.45;;;3.97;;
32876;SDS011;19226;51.600;8.034;2023-05-07T00:19:03;9.52;;;4.40;;
32876;SDS011;19226;51.600;8.034;2023-05-07T00:21:48;5.22;;;4.43;;
32876;SDS011;19226;51.600;8.034;2023-05-07T00:24:33;5.22;;;4.10;;
32876;SDS011;19226;51.600;8.034;2023-05-07T00:27:17;4.95;;;4.18;;
32876;SDS011;19226;51.600;8.034;2023-05-07T00:30:02;5.93;;;4.43;;
32876;SDS011;19226;51.600;8.034;2023-05-07T00:32:47;5.00;;;4.00;;
32876;SDS011;19226;51.600;8.034;2023-05-07T00:35:32;3.58;;;3.28;;
32876;SDS011;19226;51.600;8.034;2023-05-07T00:38:17;4.55;;;4.15;;
32876;SDS011;19226;51.600;8.034;2023-05-07T00:41:02;4.03;;;3.50;;
32876;SDS011;19226;51.600;8.034;2023-05-07T00:43:46;6.50;;;3.95;;
32876;SDS011;19226;51.600;8.034;2023-05-07T00:46:31;8.75;;;4.30;;
32876;SDS011;19226;51.600;8.034;2023-05-07T00:49:16;9.35;;;4.80;;
32876;SDS011;19226;51.600;8.034;2023-05-07T00:52:01;7.35;;;4.30;;
32876;SDS011;19226;51.600;8.034;2023-05-07T00:54:46;5.63;;;3.63;;
32876;SDS011;19226;51.600;8.034;2023-05-07T00:57:37;9.02;;;3.88;;
32876;SDS011;19226;51.600;8.034;2023-05-07T01:00:24;8.13;;;3.92;;
32876;SDS011;19226;51.600;8.034;2023-05-07T01:03:09;4.70;;;4.07;;
32876;SDS011;19226;51.600;8.034;2023-05-07T01:05:53;10.93;;;4.25;;
32876;SDS011;19226;51.600;8.034;2023-05-07T01:08:41;5.15;;;3.85;;
32876;SDS011;19226;51.600;8.034;2023-05-07T01:11:26;7.32;;;4.55;;
32876;SDS011;19226;51.600;8.034;2023-05-07T01:14:11;6.22;;;4.57;;
32876;SDS011;19226;51.600;8.034;2023-05-07T01:16:55;6.72;;;4.63;;
32876;SDS011;19226;51.600;8.034;2023-05-07T01:19:42;12.85;;;4.88;;
32876;SDS011;19226;51.600;8.034;2023-05-07T01:22:31;8.80;;;4.45;;
32876;SDS011;19226;51.600;8.034;2023-05-07T01:25:17;5.55;;;4.57;;
32876;SDS011;19226;51.600;8.034;2023-05-07T01:28:07;7.47;;;4.68;;
32876;SDS011;19226;51.600;8.034;2023-05-07T01:30:54;4.70;;;4.15;;
32876;SDS011;19226;51.600;8.034;2023-05-07T01:33:42;7.10;;;4.53;;
32876;SDS011;19226;51.600;8.034;2023-05-07T01:36:29;16.25;;;6.75;;
32876;SDS011;19226;51.600;8.034;2023-05-07T01:39:15;10.00;;;6.03;;
32876;SDS011;19226;51.600;8.034;2023-05-07T01:42:00;5.40;;;4.85;;
32876;SDS011;19226;51.600;8.034;2023-05-07T01:44:45;10.85;;;4.30;;
32876;SDS011;19226;51.600;8.034;2023-05-07T01:47:30;6.57;;;4.13;;
32876;SDS011;19226;51.600;8.034;2023-05-07T01:50:15;6.45;;;4.50;;
32876;SDS011;19226;51.600;8.034;2023-05-07T01:53:02;4.82;;;4.40;;
32876;SDS011;19226;51.600;8.034;2023-05-07T01:55:47;7.90;;;4.25;;
32876;SDS011;19226;51.600;8.034;2023-05-07T01:58:32;6.28;;;4.53;;
32876;SDS011;19226;51.600;8.034;2023-05-07T02:01:17;7.75;;;4.40;;
32876;SDS011;19226;51.600;8.034;2023-05-07T02:04:02;5.18;;;4.60;;
32876;SDS011;19226;51.600;8.034;2023-05-07T02:06:47;6.35;;;4.10;;
32876;SDS011;19226;51.600;8.034;2023-05-07T02:09:33;11.52;;;4.50;;
32876;SDS011;19226;51.600;8.034;2023-05-07T02:12:18;7.20;;;4.97;;
32876;SDS011;19226;51.600;8.034;2023-05-07T02:15:03;6.55;;;4.65;;
32876;SDS011;19226;51.600;8.034;2023-05-07T02:18:01;7.95;;;5.15;;
32876;SDS011;19226;51.600;8.034;2023-05-07T02:20:47;10.40;;;4.45;;
32876;SDS011;19226;51.600;8.034;2023-05-07T02:23:32;5.35;;;4.72;;
32876;SDS011;19226;51.600;8.034;2023-05-07T02:26:17;6.43;;;4.85;;
32876;SDS011;19226;51.600;8.034;2023-05-07T02:29:02;7.78;;;4.90;;
32876;SDS011;19226;51.600;8.034;2023-05-07T02:31:46;6.03;;;4.00;;
32876;SDS011;19226;51.600;8.034;2023-05-07T02:34:34;6.78;;;4.60;;
32876;SDS011;19226;51.600;8.034;2023-05-07T02:37:19;7.63;;;4.72;;
32876;SDS011;19226;51.600;8.034;2023-05-07T02:40:04;7.43;;;5.30;;
32876;SDS011;19226;51.600;8.034;2023-05-07T02:42:49;5.25;;;4.68;;
32876;SDS011;19226;51.600;8.034;2023-05-07T02:45:35;4.82;;;4.32;;
32876;SDS011;19226;51.600;8.034;2023-05-07T02:48:23;5.10;;;4.10;;
32876;SDS011;19226;51.600;8.034;2023-05-07T02:51:07;8.05;;;4.82;;
32876;SDS011;19226;51.600;8.034;2023-05-07T02:53:53;9.70;;;5.63;;
32876;SDS011;19226;51.600;8.034;2023-05-07T02:56:39;5.13;;;4.63;;
32876;SDS011;19226;51.600;8.034;2023-05-07T02:59:24;8.43;;;5.47;;
32876;SDS011;19226;51.600;8.034;2023-05-07T03:02:10;6.95;;;5.07;;
32876;SDS011;19226;51.600;8.034;2023-05-07T03:04:54;4.68;;;4.22;;
32876;SDS011;19226;51.600;8.034;2023-05-07T03:07:39;9.93;;;4.30;;
32876;SDS011;19226;51.600;8.034;2023-05-07T03:10:24;10.98;;;4.60;;
32876;SDS011;19226;51.600;8.034;2023-05-07T03:13:09;8.20;;;5.20;;
32876;SDS011;19226;51.600;8.034;2023-05-07T03:15:54;5.43;;;4.93;;
32876;SDS011;19226;51.600;8.034;2023-05-07T03:18:38;5.75;;;5.25;;
32876;SDS011;19226;51.600;8.034;2023-05-07T03:21:23;8.43;;;5.32;;
32876;SDS011;19226;51.600;8.034;2023-05-07T03:24:07;8.15;;;5.30;;
32876;SDS011;19226;51.600;8.034;2023-05-07T03:26:52;7.15;;;5.20;;
32876;SDS011;19226;51.600;8.034;2023-05-07T03:29:36;5.75;;;4.80;;
32876;SDS011;19226;51.600;8.034;2023-05-07T03:32:21;7.65;;;5.28;;
32876;SDS011;19226;51.600;8.034;2023-05-07T03:35:06;8.38;;;5.53;;
32876;SDS011;19226;51.600;8.034;2023-05-07T03:37:52;8.77;;;6.05;;
32876;SDS011;19226;51.600;8.034;2023-05-07T03:40:37;7.20;;;5.55;;
32876;SDS011;19226;51.600;8.034;2023-05-07T03:43:22;9.65;;;6.75;;
32876;SDS011;19226;51.600;8.034;2023-05-07T03:46:14;13.55;;;6.57;;
32876;SDS011;19226;51.600;8.034;2023-05-07T03:49:00;10.90;;;6.88;;
32876;SDS011;19226;51.600;8.034;2023-05-07T03:51:45;7.10;;;5.90;;
32876;SDS011;19226;51.600;8.034;2023-05-07T03:54:30;9.32;;;6.80;;
32876;SDS011;19226;51.600;8.034;2023-05-07T03:57:15;11.98;;;6.60;;
32876;SDS011;19226;51.600;8.034;2023-05-07T03:59:59;10.40;;;6.45;;
32876;SDS011;19226;51.600;8.034;2023-05-07T04:02:44;8.27;;;7.18;;
32876;SDS011;19226;51.600;8.034;2023-05-07T04:05:28;7.40;;;6.07;;
32876;SDS011;19226;51.600;8.034;2023-05-07T04:08:17;8.40;;;6.35;;
32876;SDS011;19226;51.600;8.034;2023-05-07T04:11:07;10.95;;;7.22;;
32876;SDS011;19226;51.600;8.034;2023-05-07T04:13:54;9.38;;;7.30;;
32876;SDS011;19226;51.600;8.034;2023-05-07T04:16:40;11.85;;;7.55;;
32876;SDS011;19226;51.600;8.034;2023-05-07T04:19:26;8.15;;;7.03;;
32876;SDS011;19226;51.600;8.034;2023-05-07T04:22:11;11.25;;;7.13;;
32876;SDS011;19226;51.600;8.034;2023-05-07T04:24:56;11.05;;;7.20;;
32876;SDS011;19226;51.600;8.034;2023-05-07T04:27:41;10.05;;;7.70;;
32876;SDS011;19226;51.600;8.034;2023-05-07T04:30:25;15.13;;;8.48;;
32876;SDS011;19226;51.600;8.034;2023-05-07T04:33:10;12.90;;;8.75;;
32876;SDS011;19226;51.600;8.034;2023-05-07T04:35:58;13.25;;;9.77;;
32876;SDS011;19226;51.600;8.034;2023-05-07T04:38:47;15.52;;;9.88;;
32876;SDS011;19226;51.600;8.034;2023-05-07T04:41:32;15.43;;;10.65;;
32876;SDS011;19226;51.600;8.034;2023-05-07T04:44:17;21.98;;;11.07;;
32876;SDS011;19226;51.600;8.034;2023-05-07T04:47:01;14.43;;;11.25;;
32876;SDS011;19226;51.600;8.034;2023-05-07T04:49:46;20.20;;;12.60;;
32876;SDS011;19226;51.600;8.034;2023-05-07T04:52:31;17.85;;;12.82;;
32876;SDS011;19226;51.600;8.034;2023-05-07T04:55:17;18.20;;;12.23;;
32876;SDS011;19226;51.600;8.034;2023-05-07T04:58:02;22.20;;;14.70;;
32876;SDS011;19226;51.600;8.034;2023-05-07T05:00:49;18.48;;;14.10;;
32876;SDS011;19226;51.600;8.034;2023-05-07T05:03:33;23.77;;;15.00;;
32876;SDS011;19226;51.600;8.034;2023-05-07T05:06:18;19.92;;;15.02;;
32876;SDS011;19226;51.600;8.034;2023-05-07T05:09:03;23.30;;;15.27;;
32876;SDS011;19226;51.600;8.034;2023-05-07T05:11:49;19.92;;;15.00;;
32876;SDS011;19226;51.600;8.034;2023-05-07T05:14:33;21.92;;;15.60;;
32876;SDS011;19226;51.600;8.034;2023-05-07T05:17:18;23.15;;;16.88;;
32876;SDS011;19226;51.600;8.034;2023-05-07T05:20:04;28.23;;;17.23;;
32876;SDS011;19226;51.600;8.034;2023-05-07T05:22:50;23.20;;;16.80;;
32876;SDS011;19226;51.600;8.034;2023-05-07T05:25:34;22.75;;;17.02;;
32876;SDS011;19226;51.600;8.034;2023-05-07T05:28:19;29.98;;;17.20;;
32876;SDS011;19226;51.600;8.034;2023-05-07T05:31:04;28.05;;;18.35;;
32876;SDS011;19226;51.600;8.034;2023-05-07T05:33:52;23.50;;;17.67;;
32876;SDS011;19226;51.600;8.034;2023-05-07T05:36:38;23.05;;;17.73;;
32876;SDS011;19226;51.600;8.034;2023-05-07T05:39:22;24.50;;;17.48;;
32876;SDS011;19226;51.600;8.034;2023-05-07T05:42:07;24.33;;;17.25;;
32876;SDS011;19226;51.600;8.034;2023-05-07T05:44:53;27.23;;;17.90;;
32876;SDS011;19226;51.600;8.034;2023-05-07T05:47:37;30.48;;;18.13;;
32876;SDS011;19226;51.600;8.034;2023-05-07T05:50:23;24.90;;;18.23;;
32876;SDS011;19226;51.600;8.034;2023-05-07T05:53:09;26.65;;;18.40;;
32876;SDS011;19226;51.600;8.034;2023-05-07T05:55:54;30.17;;;18.88;;
32876;SDS011;19226;51.600;8.034;2023-05-07T05:58:39;25.27;;;18.50;;
32876;SDS011;19226;51.600;8.034;2023-05-07T06:01:25;29.45;;;19.00;;
32876;SDS011;19226;51.600;8.034;2023-05-07T06:04:11;24.48;;;18.70;;
32876;SDS011;19226;51.600;8.034;2023-05-07T06:06:55;29.35;;;18.02;;
32876;SDS011;19226;51.600;8.034;2023-05-07T06:09:42;28.20;;;18.67;;
32876;SDS011;19226;51.600;8.034;2023-05-07T06:12:27;24.33;;;18.55;;
32876;SDS011;19226;51.600;8.034;2023-05-07T06:15:12;25.73;;;18.95;;
32876;SDS011;19226;51.600;8.034;2023-05-07T06:17:58;22.50;;;17.27;;
32876;SDS011;19226;51.600;8.034;2023-05-07T06:20:42;25.48;;;18.58;;
32876;SDS011;19226;51.600;8.034;2023-05-07T06:23:34;33.05;;;19.08;;
32876;SDS011;19226;51.600;8.034;2023-05-07T06:26:20;24.83;;;18.48;;
32876;SDS011;19226;51.600;8.034;2023-05-07T06:29:05;29.10;;;18.15;;
32876;SDS011;19226;51.600;8.034;2023-05-07T06:31:50;25.10;;;18.63;;
32876;SDS011;19226;51.600;8.034;2023-05-07T06:34:34;26.58;;;18.95;;
32876;SDS011;19226;51.600;8.034;2023-05-07T06:37:19;26.23;;;17.95;;
32876;SDS011;19226;51.600;8.034;2023-05-07T06:40:13;27.90;;;18.70;;
32876;SDS011;19226;51.600;8.034;2023-05-07T06:42:59;24.77;;;17.33;;
32876;SDS011;19226;51.600;8.034;2023-05-07T06:45:58;28.67;;;17.63;;
32876;SDS011;19226;51.600;8.034;2023-05-07T06:48:43;25.25;;;17.85;;
32876;SDS011;19226;51.600;8.034;2023-05-07T06:51:28;23.33;;;16.88;;
32876;SDS011;19226;51.600;8.034;2023-05-07T06:54:14;24.27;;;17.40;;
32876;SDS011;19226;51.600;8.034;2023-05-07T06:57:01;24.45;;;16.65;;
32876;SDS011;19226;51.600;8.034;2023-05-07T06:59:47;26.13;;;17.25;;
32876;SDS011;19226;51.600;8.034;2023-05-07T07:02:32;26.08;;;16.27;;
32876;SDS011;19226;51.600;8.034;2023-05-07T07:05:16;22.27;;;15.80;;
32876;SDS011;19226;51.600;8.034;2023-05-07T07:08:01;21.80;;;16.65;;
32876;SDS011;19226;51.600;8.034;2023-05-07T07:10:45;21.50;;;16.63;;
32876;SDS011;19226;51.600;8.034;2023-05-07T07:13:30;23.92;;;16.70;;
32876;SDS011;19226;51.600;8.034;2023-05-07T07:16:15;21.40;;;16.30;;
32876;SDS011;19226;51.600;8.034;2023-05-07T07:18:59;22.73;;;16.75;;
32876;SDS011;19226;51.600;8.034;2023-05-07T07:21:44;22.00;;;16.60;;
32876;SDS011;19226;51.600;8.034;2023-05-07T07:24:30;20.33;;;15.60;;
32876;SDS011;19226;51.600;8.034;2023-05-07T07:27:18;26.00;;;17.17;;
32876;SDS011;19226;51.600;8.034;2023-05-07T07:30:03;22.48;;;16.05;;
32876;SDS011;19226;51.600;8.034;2023-05-07T07:32:51;20.83;;;15.38;;
32876;SDS011;19226;51.600;8.034;2023-05-07T07:35:37;21.42;;;15.55;;
32876;SDS011;19226;51.600;8.034;2023-05-07T07:38:23;25.02;;;16.30;;
32876;SDS011;19226;51.600;8.034;2023-05-07T07:41:08;24.77;;;17.27;;
32876;SDS011;19226;51.600;8.034;2023-05-07T07:43:54;28.58;;;16.65;;
32876;SDS011;19226;51.600;8.034;2023-05-07T07:46:39;22.63;;;16.65;;
32876;SDS011;19226;51.600;8.034;2023-05-07T07:49:24;22.80;;;15.30;;
32876;SDS011;19226;51.600;8.034;2023-05-07T07:52:09;23.65;;;15.98;;
32876;SDS011;19226;51.600;8.034;2023-05-07T07:54:54;26.58;;;17.80;;
32876;SDS011;19226;51.600;8.034;2023-05-07T07:57:40;24.95;;;17.75;;
32876;SDS011;19226;51.600;8.034;2023-05-07T08:00:25;25.33;;;16.77;;
32876;SDS011;19226;51.600;8.034;2023-05-07T08:03:13;22.83;;;16.38;;
32876;SDS011;19226;51.600;8.034;2023-05-07T08:06:03;24.30;;;16.55;;
32876;SDS011;19226;51.600;8.034;2023-05-07T08:08:49;21.67;;;16.45;;
32876;SDS011;19226;51.600;8.034;2023-05-07T08:11:34;21.98;;;16.13;;
32876;SDS011;19226;51.600;8.034;2023-05-07T08:14:20;24.85;;;17.05;;
32876;SDS011;19226;51.600;8.034;2023-05-07T08:17:05;22.05;;;17.10;;
32876;SDS011;19226;51.600;8.034;2023-05-07T08:19:52;21.08;;;16.40;;
32876;SDS011;19226;51.600;8.034;2023-05-07T08:22:37;19.60;;;16.27;;
32876;SDS011;19226;51.600;8.034;2023-05-07T08:25:22;23.33;;;17.00;;
32876;SDS011;19226;51.600;8.034;2023-05-07T08:28:06;26.63;;;16.40;;
32876;SDS011;19226;51.600;8.034;2023-05-07T08:30:51;24.02;;;15.93;;
32876;SDS011;19226;51.600;8.034;2023-05-07T08:33:37;24.65;;;16.20;;
32876;SDS011;19226;51.600;8.034;2023-05-07T08:36:22;20.30;;;15.82;;
32876;SDS011;19226;51.600;8.034;2023-05-07T08:39:07;24.40;;;16.50;;
32876;SDS011;19226;51.600;8.034;2023-05-07T08:41:52;19.75;;;15.25;;
32876;SDS011;19226;51.600;8.034;2023-05-07T08:44:45;18.95;;;14.88;;
32876;SDS011;19226;51.600;8.034;2023-05-07T08:47:38;27.30;;;15.63;;
32876;SDS011;19226;51.600;8.034;2023-05-07T08:50:28;22.38;;;15.93;;
32876;SDS011;19226;51.600;8.034;2023-05-07T08:53:13;20.80;;;14.45;;
32876;SDS011;19226;51.600;8.034;2023-05-07T08:55:59;20.77;;;15.25;;
32876;SDS011;19226;51.600;8.034;2023-05-07T08:58:46;19.38;;;14.48;;
32876;SDS011;19226;51.600;8.034;2023-05-07T09:01:31;18.67;;;15.18;;
32876;SDS011;19226;51.600;8.034;2023-05-07T09:04:16;22.95;;;14.82;;
32876;SDS011;19226;51.600;8.034;2023-05-07T09:07:01;27.60;;;15.10;;
32876;SDS011;19226;51.600;8.034;2023-05-07T09:09:52;18.75;;;14.93;;
32876;SDS011;19226;51.600;8.034;2023-05-07T09:12:39;19.60;;;14.45;;
32876;SDS011;19226;51.600;8.034;2023-05-07T09:15:26;20.67;;;14.65;;
32876;SDS011;19226;51.600;8.034;2023-05-07T09:18:12;18.02;;;14.75;;
32876;SDS011;19226;51.600;8.034;2023-05-07T09:20:57;19.75;;;14.05;;
32876;SDS011;19226;51.600;8.034;2023-05-07T09:23:42;16.60;;;13.93;;
32876;SDS011;19226;51.600;8.034;2023-05-07T09:26:26;19.27;;;14.75;;
32876;SDS011;19226;51.600;8.034;2023-05-07T09:29:12;20.77;;;13.50;;
32876;SDS011;19226;51.600;8.034;2023-05-07T09:31:59;17.20;;;13.93;;
32876;SDS011;19226;51.600;8.034;2023-05-07T09:34:43;19.70;;;14.05;;
32876;SDS011;19226;51.600;8.034;2023-05-07T09:37:30;20.02;;;14.55;;
32876;SDS011;19226;51.600;8.034;2023-05-07T09:40:28;21.90;;;14.40;;
32876;SDS011;19226;51.600;8.034;2023-05-07T09:43:18;19.98;;;14.23;;
32876;SDS011;19226;51.600;8.034;2023-05-07T09:46:14;14.57;;;11.95;;
32876;SDS011;19226;51.600;8.034;2023-05-07T09:49:06;19.83;;;12.75;;
32876;SDS011;19226;51.600;8.034;2023-05-07T09:51:54;16.15;;;13.05;;
32876;SDS011;19226;51.600;8.034;2023-05-07T09:54:43;15.32;;;12.63;;
32876;SDS011;19226;51.600;8.034;2023-05-07T09:57:30;16.27;;;12.77;;
32876;SDS011;19226;51.600;8.034;2023-05-07T10:00:19;20.35;;;13.77;;
32876;SDS011;19226;51.600;8.034;2023-05-07T10:03:05;18.42;;;13.45;;
32876;SDS011;19226;51.600;8.034;2023-05-07T10:05:59;13.48;;;11.80;;
32876;SDS011;19226;51.600;8.034;2023-05-07T10:08:45;13.65;;;12.00;;
32876;SDS011;19226;51.600;8.034;2023-05-07T10:11:34;14.60;;;11.57;;
32876;SDS011;19226;51.600;8.034;2023-05-07T10:14:20;15.40;;;11.73;;
32876;SDS011;19226;51.600;8.034;2023-05-07T10:17:06;14.38;;;11.73;;
32876;SDS011;19226;51.600;8.034;2023-05-07T10:19:53;13.90;;;10.82;;
32876;SDS011;19226;51.600;8.034;2023-05-07T10:22:41;12.60;;;10.90;;
32876;SDS011;19226;51.600;8.034;2023-05-07T10:25:30;13.48;;;10.48;;
32876;SDS011;19226;51.600;8.034;2023-05-07T10:28:20;14.43;;;10.57;;
32876;SDS011;19226;51.600;8.034;2023-05-07T10:31:10;13.85;;;10.40;;
32876;SDS011;19226;51.600;8.034;2023-05-07T10:34:08;11.80;;;9.23;;
32876;SDS011;19226;51.600;8.034;2023-05-07T10:36:57;11.48;;;8.57;;
32876;SDS011;19226;51.600;8.034;2023-05-07T10:39:43;12.13;;;9.63;;
32876;SDS011;19226;51.600;8.034;2023-05-07T10:42:28;13.48;;;9.57;;
32876;SDS011;19226;51.600;8.034;2023-05-07T10:45:14;12.15;;;8.68;;
32876;SDS011;19226;51.600;8.034;2023-05-07T10:48:12;10.77;;;8.40;;
32876;SDS011;19226;51.600;8.034;2023-05-07T10:51:19;14.80;;;9.40;;
32876;SDS011;19226;51.600;8.034;2023-05-07T10:56:55;10.45;;;8.25;;
32876;SDS011;19226;51.600;8.034;2023-05-07T11:03:13;8.90;;;7.32;;
32876;SDS011;19226;51.600;8.034;2023-05-07T11:06:12;9.90;;;8.55;;
32876;SDS011;19226;51.600;8.034;2023-05-07T11:09:22;7.60;;;6.90;;
32876;SDS011;19226;51.600;8.034;2023-05-07T11:12:14;9.95;;;7.05;;
32876;SDS011;19226;51.600;8.034;2023-05-07T11:15:08;8.88;;;6.85;;
32876;SDS011;19226;51.600;8.034;2023-05-07T11:17:56;7.83;;;6.90;;
32876;SDS011;19226;51.600;8.034;2023-05-07T11:26:56;7.70;;;5.95;;
32876;SDS011;19226;51.600;8.034;2023-05-07T11:29:46;8.27;;;6.20;;
32876;SDS011;19226;51.600;8.034;2023-05-07T11:32:32;8.32;;;7.35;;
32876;SDS011;19226;51.600;8.034;2023-05-07T11:35:17;6.88;;;6.25;;
32876;SDS011;19226;51.600;8.034;2023-05-07T11:38:06;6.97;;;5.78;;
32876;SDS011;19226;51.600;8.034;2023-05-07T11:40:52;7.30;;;6.20;;
32876;SDS011;19226;51.600;8.034;2023-05-07T11:43:40;11.57;;;7.20;;
32876;SDS011;19226;51.600;8.034;2023-05-07T11:46:42;6.95;;;5.32;;
32876;SDS011;19226;51.600;8.034;2023-05-07T11:49:28;6.40;;;5.80;;
32876;SDS011;19226;51.600;8.034;2023-05-07T11:52:13;10.40;;;5.68;;
32876;SDS011;19226;51.600;8.034;2023-05-07T11:54:59;6.65;;;5.97;;
32876;SDS011;19226;51.600;8.034;2023-05-07T11:57:45;7.32;;;6.53;;
32876;SDS011;19226;51.600;8.034;2023-05-07T12:00:29;9.38;;;6.10;;
32876;SDS011;19226;51.600;8.034;2023-05-07T12:03:14;11.30;;;5.85;;
32876;SDS011;19226;51.600;8.034;2023-05-07T12:05:59;7.85;;;5.35;;
32876;SDS011;19226;51.600;8.034;2023-05-07T12:08:44;10.75;;;5.85;;
32876;SDS011;19226;51.600;8.034;2023-05-07T12:11:30;8.63;;;6.45;;
32876;SDS011;19226;51.600;8.034;2023-05-07T12:14:14;5.93;;;5.13;;
32876;SDS011;19226;51.600;8.034;2023-05-07T12:17:01;6.60;;;5.72;;
32876;SDS011;19226;51.600;8.034;2023-05-07T12:19:47;6.57;;;5.30;;
32876;SDS011;19226;51.600;8.034;2023-05-07T12:22:31;7.53;;;6.28;;
32876;SDS011;19226;51.600;8.034;2023-05-07T12:25:18;7.45;;;5.50;;
32876;SDS011;19226;51.600;8.034;2023-05-07T12:28:04;5.55;;;5.05;;
32876;SDS011;19226;51.600;8.034;2023-05-07T12:30:49;7.50;;;4.70;;
32876;SDS011;19226;51.600;8.034;2023-05-07T12:33:35;5.00;;;4.20;;
32876;SDS011;19226;51.600;8.034;2023-05-07T12:36:20;5.75;;;4.85;;
32876;SDS011;19226;51.600;8.034;2023-05-07T12:39:05;7.82;;;5.07;;
32876;SDS011;19226;51.600;8.034;2023-05-07T12:41:55;7.40;;;4.70;;
32876;SDS011;19226;51.600;8.034;2023-05-07T12:44:44;6.22;;;5.25;;
32876;SDS011;19226;51.600;8.034;2023-05-07T12:47:30;5.55;;;4.90;;
32876;SDS011;19226;51.600;8.034;2023-05-07T12:50:16;4.95;;;4.50;;
32876;SDS011;19226;51.600;8.034;2023-05-07T12:53:00;7.65;;;4.60;;
32876;SDS011;19226;51.600;8.034;2023-05-07T12:55:52;5.35;;;4.85;;
32876;SDS011;19226;51.600;8.034;2023-05-07T12:58:38;5.70;;;4.47;;
32876;SDS011;19226;51.600;8.034;2023-05-07T13:01:28;5.65;;;3.90;;
32876;SDS011;19226;51.600;8.034;2023-05-07T13:04:14;6.03;;;4.28;;
32876;SDS011;19226;51.600;8.034;2023-05-07T13:06:59;4.78;;;4.38;;
32876;SDS011;19226;51.600;8.034;2023-05-07T13:09:44;6.70;;;4.60;;
32876;SDS011;19226;51.600;8.034;2023-05-07T13:12:28;5.32;;;4.68;;
32876;SDS011;19226;51.600;8.034;2023-05-07T13:15:13;5.03;;;4.45;;
32876;SDS011;19226;51.600;8.034;2023-05-07T13:17:57;5.55;;;4.40;;
32876;SDS011;19226;51.600;8.034;2023-05-07T13:20:42;5.60;;;4.78;;
32876;SDS011;19226;51.600;8.034;2023-05-07T13:23:28;7.55;;;5.13;;
32876;SDS011;19226;51.600;8.034;2023-05-07T13:26:13;5.50;;;5.00;;
32876;SDS011;19226;51.600;8.034;2023-05-07T13:28:57;6.88;;;5.55;;
32876;SDS011;19226;51.600;8.034;2023-05-07T13:31:41;5.53;;;5.03;;
32876;SDS011;19226;51.600;8.034;2023-05-07T13:34:27;5.53;;;5.03;;
32876;SDS011;19226;51.600;8.034;2023-05-07T13:37:12;5.60;;;5.10;;
32876;SDS011;19226;51.600;8.034;2023-05-07T13:39:57;5.93;;;4.88;;
32876;SDS011;19226;51.600;8.034;2023-05-07T13:42:41;6.47;;;5.80;;
32876;SDS011;19226;51.600;8.034;2023-05-07T13:45:26;15.70;;;6.28;;
32876;SDS011;19226;51.600;8.034;2023-05-07T13:48:13;6.72;;;5.90;;
32876;SDS011;19226;51.600;8.034;2023-05-07T13:50:57;6.47;;;5.30;;
32876;SDS011;19226;51.600;8.034;2023-05-07T13:53:42;5.65;;;5.10;;
32876;SDS011;19226;51.600;8.034;2023-05-07T13:56:27;6.03;;;4.97;;
32876;SDS011;19226;51.600;8.034;2023-05-07T13:59:12;7.43;;;5.28;;
32876;SDS011;19226;51.600;8.034;2023-05-07T14:01:58;5.70;;;5.00;;
32876;SDS011;19226;51.600;8.034;2023-05-07T14:04:42;5.80;;;4.97;;
32876;SDS011;19226;51.600;8.034;2023-05-07T14:07:28;6.40;;;4.57;;
32876;SDS011;19226;51.600;8.034;2023-05-07T14:10:12;4.93;;;3.75;;
32876;SDS011;19226;51.600;8.034;2023-05-07T14:12:57;6.32;;;3.08;;
32876;SDS011;19226;51.600;8.034;2023-05-07T14:15:42;2.33;;;2.13;;
32876;SDS011;19226;51.600;8.034;2023-05-07T14:18:30;4.43;;;2.10;;
32876;SDS011;19226;51.600;8.034;2023-05-07T14:21:15;2.40;;;2.20;;
32876;SDS011;19226;51.600;8.034;2023-05-07T14:23:59;3.83;;;1.92;;
32876;SDS011;19226;51.600;8.034;2023-05-07T14:26:44;3.00;;;2.05;;
32876;SDS011;19226;51.600;8.034;2023-05-07T14:29:29;3.38;;;2.25;;
32876;SDS011;19226;51.600;8.034;2023-05-07T14:32:13;6.03;;;1.80;;
32876;SDS011;19226;51.600;8.034;2023-05-07T14:34:58;5.25;;;2.63;;
32876;SDS011;19226;51.600;8.034;2023-05-07T14:37:43;3.28;;;2.40;;
32876;SDS011;19226;51.600;8.034;2023-05-07T14:40:27;2.85;;;2.65;;
32876;SDS011;19226;51.600;8.034;2023-05-07T14:43:12;2.30;;;2.10;;
32876;SDS011;19226;51.600;8.034;2023-05-07T14:45:56;2.22;;;2.00;;
32876;SDS011;19226;51.600;8.034;2023-05-07T14:48:41;5.13;;;1.95;;
32876;SDS011;19226;51.600;8.034;2023-05-07T14:51:26;3.88;;;2.00;;
32876;SDS011;19226;51.600;8.034;2023-05-07T14:54:12;1.73;;;1.63;;
32876;SDS011;19226;51.600;8.034;2023-05-07T14:56:57;1.83;;;1.50;;
32876;SDS011;19226;51.600;8.034;2023-05-07T14:59:42;2.03;;;1.80;;
32876;SDS011;19226;51.600;8.034;2023-05-07T15:02:26;2.15;;;1.48;;
32876;SDS011;19226;51.600;8.034;2023-05-07T15:05:11;4.97;;;1.88;;
32876;SDS011;19226;51.600;8.034;2023-05-07T15:07:56;7.70;;;2.20;;
32876;SDS011;19226;51.600;8.034;2023-05-07T15:10:40;1.73;;;1.20;;
32876;SDS011;19226;51.600;8.034;2023-05-07T15:13:25;1.48;;;1.38;;
32876;SDS011;19226;51.600;8.034;2023-05-07T15:16:09;1.42;;;1.30;;
32876;SDS011;19226;51.600;8.034;2023-05-07T15:18:54;2.38;;;1.40;;
32876;SDS011;19226;51.600;8.034;2023-05-07T15:21:39;1.23;;;1.13;;
32876;SDS011;19226;51.600;8.034;2023-05-07T15:24:24;3.75;;;1.33;;
32876;SDS011;19226;51.600;8.034;2023-05-07T15:27:09;1.45;;;1.20;;
32876;SDS011;19226;51.600;8.034;2023-05-07T15:29:54;1.52;;;1.35;;
32876;SDS011;19226;51.600;8.034;2023-05-07T15:32:39;1.20;;;1.10;;
32876;SDS011;19226;51.600;8.034;2023-05-07T15:35:24;2.00;;;1.30;;
32876;SDS011;19226;51.600;8.034;2023-05-07T15:38:09;1.27;;;1.17;;
32876;SDS011;19226;51.600;8.034;2023-05-07T15:40:54;1.73;;;1.40;;
32876;SDS011;19226;51.600;8.034;2023-05-07T15:43:43;1.38;;;1.27;;
32876;SDS011;19226;51.600;8.034;2023-05-07T15:46:31;2.63;;;1.63;;
32876;SDS011;19226;51.600;8.034;2023-05-07T15:49:16;2.40;;;2.20;;
32876;SDS011;19226;51.600;8.034;2023-05-07T15:52:00;4.78;;;2.78;;
32876;SDS011;19226;51.600;8.034;2023-05-07T15:54:45;3.00;;;2.80;;
32876;SDS011;19226;51.600;8.034;2023-05-07T15:57:29;3.78;;;3.10;;
32876;SDS011;19226;51.600;8.034;2023-05-07T16:00:15;4.50;;;3.13;;
32876;SDS011;19226;51.600;8.034;2023-05-07T16:03:01;4.30;;;3.90;;
32876;SDS011;19226;51.600;8.034;2023-05-07T16:05:45;4.43;;;4.00;;
32876;SDS011;19226;51.600;8.034;2023-05-07T16:08:30;4.40;;;3.60;;
32876;SDS011;19226;51.600;8.034;2023-05-07T16:11:14;5.13;;;4.25;;
32876;SDS011;19226;51.600;8.034;2023-05-07T16:13:59;9.77;;;4.88;;
32876;SDS011;19226;51.600;8.034;2023-05-07T16:16:44;7.22;;;5.05;;
32876;SDS011;19226;51.600;8.034;2023-05-07T16:19:28;5.80;;;5.03;;
32876;SDS011;19226;51.600;8.034;2023-05-07T16:22:13;6.55;;;4.80;;
32876;SDS011;19226;51.600;8.034;2023-05-07T16:24:57;6.03;;;4.18;;
32876;SDS011;19226;51.600;8.034;2023-05-07T16:27:42;9.38;;;4.63;;
32876;SDS011;19226;51.600;8.034;2023-05-07T16:30:27;6.95;;;5.28;;
32876;SDS011;19226;51.600;8.034;2023-05-07T16:33:11;7.45;;;5.95;;
32876;SDS011;19226;51.600;8.034;2023-05-07T16:35:56;10.57;;;5.50;;
32876;SDS011;19226;51.600;8.034;2023-05-07T16:38:40;28.52;;;8.77;;
32876;SDS011;19226;51.600;8.034;2023-05-07T16:41:25;8.05;;;6.22;;